Weather at Oseberg East Platform

Public forecast

Using degrees Celsius for public forecast. Weather courtesy of forecast.io.

Closest aviation weather report (METAR) to Oseberg East Platform

Closest report is Oseberg A Platform, 12.9 nm (23.9 km) SSW.

2024/07/19 08:20 (retrieved 20 minutes ago)

ENOA 190820Z 16018KT 4800 BR BKN008 15/14 Q1017 W///S3

Closest aviation forecast (TAF) to Oseberg East Platform

Closest forecast is Oseberg A Platform, 12.9 nm (23.9 km) SSW.

2024/07/19 06:36 (retrieved 2 hours ago)

TAF ENOA 190500Z 1906/2006 17018KT 9999 FEW012 SCT040 PROB30 1906/1914 0100 FG VV001 BECMG 1912/1914 16028KT